Time;durP1;ratioP1;P1;durP2;ratioP2;P2;SDS_P1;SDS_P2;PMS_P1;PMS_P2;Temp;Humidity;BMP_temperature;BMP_pressure;BME280_temperature;BME280_humidity;BME280_pressure;Samples;Min_cycle;Max_cycle;Signal;HPM_P1;HPM_P2
2023/01/03 00:01:21;;;;;;;24.58;10.15;;;3.60;99.90;;;;;;5076898;28;20048;-67
2023/01/03 00:03:47;;;;;;;20.42;9.73;;;3.50;99.90;;;;;;5060669;28;20048;-67
2023/01/03 00:06:24;;;;;;;21.85;9.30;;;3.50;99.90;;;;;;5060303;28;20040;-67
2023/01/03 00:08:52;;;;;;;16.40;8.77;;;3.50;99.90;;;;;;5081478;28;20084;-67
2023/01/03 00:12:22;;;;;;;18.27;9.10;;;3.50;99.90;;;;;;5075436;28;20601;-67
2023/01/03 00:14:11;;;;;;;20.98;8.95;;;3.50;99.90;;;;;;5077224;28;20123;-67
2023/01/03 00:16:37;;;;;;;14.70;9.40;;;3.50;99.90;;;;;;5083833;28;20062;-67
2023/01/03 00:19:07;;;;;;;22.85;10.38;;;3.40;99.90;;;;;;5079549;28;20517;-67
2023/01/03 00:21:34;;;;;;;17.27;9.75;;;3.40;99.90;;;;;;5060519;28;20036;-67
2023/01/03 00:24:00;;;;;;;18.95;9.77;;;3.40;99.90;;;;;;5060859;28;20044;-67
2023/01/03 00:26:26;;;;;;;19.98;10.25;;;3.40;99.90;;;;;;5083296;28;20507;-67
2023/01/03 00:28:52;;;;;;;19.38;10.27;;;3.40;99.90;;;;;;5051799;28;20151;-67
2023/01/03 00:31:17;;;;;;;17.90;9.63;;;3.30;99.90;;;;;;5081374;28;20031;-67
2023/01/03 00:33:43;;;;;;;20.05;9.82;;;3.30;99.90;;;;;;5063439;28;20048;-67
2023/01/03 00:36:09;;;;;;;20.25;9.35;;;3.20;99.90;;;;;;5083840;28;20067;-67
2023/01/03 00:38:36;;;;;;;19.05;8.73;;;3.20;99.90;;;;;;5061265;28;20431;-67
2023/01/03 00:41:07;;;;;;;22.63;9.45;;;3.20;99.90;;;;;;5064455;28;20040;-67
2023/01/03 00:43:34;;;;;;;20.63;10.43;;;3.20;99.90;;;;;;5084840;28;20193;-67
2023/01/03 00:46:00;;;;;;;21.02;9.75;;;3.10;99.90;;;;;;5061550;28;20374;-67
2023/01/03 00:48:26;;;;;;;23.63;9.85;;;3.10;99.90;;;;;;5078434;28;20036;-67
2023/01/03 00:50:52;;;;;;;25.00;10.05;;;3.10;99.90;;;;;;5075692;28;20040;-66
2023/01/03 00:53:18;;;;;;;21.55;10.20;;;3.00;99.90;;;;;;5079171;28;20040;-66
2023/01/03 00:55:44;;;;;;;17.63;9.77;;;3.00;99.90;;;;;;5081441;28;20044;-66
2023/01/03 00:58:10;;;;;;;25.30;9.75;;;3.00;99.90;;;;;;5066012;28;20139;-66
2023/01/03 01:00:36;;;;;;;19.20;10.23;;;3.00;99.90;;;;;;5060431;28;20127;-67
2023/01/03 01:03:01;;;;;;;24.92;11.05;;;3.00;99.90;;;;;;5062715;28;20329;-66
2023/01/03 01:05:30;;;;;;;19.35;10.88;;;3.00;99.90;;;;;;5081230;28;20125;-66
2023/01/03 01:07:56;;;;;;;23.92;11.15;;;2.90;99.90;;;;;;5082165;28;20126;-66
2023/01/03 01:10:22;;;;;;;16.15;10.55;;;2.90;99.90;;;;;;5086070;28;20053;-66
2023/01/03 01:12:48;;;;;;;19.80;10.25;;;2.90;99.90;;;;;;5078546;28;20431;-66
2023/01/03 01:15:14;;;;;;;22.25;10.57;;;2.80;99.90;;;;;;5082887;28;20043;-66
2023/01/03 01:17:40;;;;;;;21.13;11.95;;;2.80;99.90;;;;;;5078216;28;20041;-66
2023/01/03 01:20:07;;;;;;;29.33;11.50;;;2.80;99.90;;;;;;5083199;28;20035;-66
2023/01/03 01:22:35;;;;;;;22.88;11.35;;;2.70;99.90;;;;;;5064498;28;20457;-66
2023/01/03 01:25:02;;;;;;;24.40;11.13;;;2.70;99.90;;;;;;5079966;28;20067;-66
2023/01/03 01:27:27;;;;;;;20.17;10.75;;;2.70;99.90;;;;;;5056732;28;20104;-66
2023/01/03 01:29:53;;;;;;;23.80;12.05;;;2.70;99.90;;;;;;5084869;28;20032;-66
2023/01/03 01:32:19;;;;;;;26.58;12.90;;;2.60;99.90;;;;;;5080309;28;20071;-66
2023/01/03 01:34:45;;;;;;;22.85;12.23;;;2.60;99.90;;;;;;5080825;28;20044;-66
2023/01/03 01:37:10;;;;;;;24.17;12.50;;;2.60;99.90;;;;;;5081180;28;20040;-66
2023/01/03 01:39:36;;;;;;;33.30;14.07;;;2.50;99.90;;;;;;5081296;28;20131;-66
2023/01/03 01:44:56;;;;;;;26.02;13.55;;;2.50;99.90;;;;;;5063616;28;20082;-66
2023/01/03 01:47:31;;;;;;;27.50;13.00;;;2.50;99.90;;;;;;5076481;28;20044;-66
2023/01/03 01:50:21;;;;;;;41.35;15.25;;;2.50;99.90;;;;;;5066172;28;20064;-66
2023/01/03 01:52:59;;;;;;;24.70;13.07;;;2.50;99.90;;;;;;5083494;28;20052;-66
2023/01/03 01:55:29;;;;;;;21.65;13.10;;;2.50;99.90;;;;;;5072930;28;20039;-66
2023/01/03 01:57:55;;;;;;;34.30;14.13;;;2.50;99.90;;;;;;5079815;28;20499;-66
2023/01/03 02:00:21;;;;;;;34.50;14.30;;;2.50;99.90;;;;;;5066964;28;20415;-66
2023/01/03 02:02:49;;;;;;;34.15;14.02;;;2.50;99.90;;;;;;5083540;28;20032;-66
2023/01/03 02:05:16;;;;;;;32.17;14.63;;;2.50;99.90;;;;;;5047800;28;20036;-66
2023/01/03 02:07:46;;;;;;;26.52;13.77;;;2.50;99.90;;;;;;5062416;28;20372;-66
2023/01/03 02:10:12;;;;;;;33.25;14.38;;;2.50;99.90;;;;;;5081066;28;20039;-66
2023/01/03 02:13:19;;;;;;;33.67;15.25;;;2.40;99.90;;;;;;5064262;28;20056;-66
2023/01/03 02:16:22;;;;;;;29.52;15.32;;;2.40;99.90;;;;;;4984794;28;20042;-66
2023/01/03 02:19:15;;;;;;;33.83;15.50;;;2.40;99.90;;;;;;4983352;28;20078;-66
2023/01/03 02:21:50;;;;;;;31.13;14.98;;;2.40;99.90;;;;;;5056756;28;20516;-66
2023/01/03 02:24:37;;;;;;;36.50;15.23;;;2.40;99.90;;;;;;5054351;28;20557;-66
2023/01/03 02:27:26;;;;;;;36.08;15.55;;;2.40;99.90;;;;;;5078485;28;20038;-66
2023/01/03 02:30:36;;;;;;;30.55;14.95;;;2.30;99.90;;;;;;5081523;28;20123;-66
2023/01/03 02:33:19;;;;;;;33.83;15.95;;;2.30;99.90;;;;;;4997494;28;20058;-66
2023/01/03 02:36:12;;;;;;;28.38;14.40;;;2.30;99.90;;;;;;5077489;28;20384;-66
2023/01/03 02:39:01;;;;;;;42.47;17.48;;;2.40;99.90;;;;;;5081343;28;20088;-66
2023/01/03 02:41:46;;;;;;;35.15;15.13;;;2.40;99.90;;;;;;5078609;28;20040;-66
2023/01/03 02:44:26;;;;;;;41.28;15.90;;;2.40;99.90;;;;;;5074140;28;20119;-66
2023/01/03 02:47:10;;;;;;;45.95;16.85;;;2.40;99.90;;;;;;5076480;28;20114;-66
2023/01/03 02:49:45;;;;;;;38.92;17.23;;;2.40;99.90;;;;;;5080246;28;20043;-66
2023/01/03 02:52:15;;;;;;;42.22;18.15;;;2.40;99.90;;;;;;5076098;28;20097;-66
2023/01/03 02:55:15;;;;;;;40.65;17.77;;;2.50;99.90;;;;;;5075486;28;20410;-66
2023/01/03 02:57:49;;;;;;;47.08;19.00;;;2.50;99.90;;;;;;5065446;28;20063;-66
2023/01/03 03:00:16;;;;;;;;;;;2.60;99.90;;;;;;5086859;28;20484;-66
2023/01/03 03:02:50;;;;;;;40.85;18.58;;;2.60;99.90;;;;;;5076517;28;19924;-67
2023/01/03 03:05:32;;;;;;;36.50;17.73;;;2.60;99.90;;;;;;5048751;28;20051;-66
2023/01/03 03:07:58;;;;;;;54.20;20.45;;;2.60;99.90;;;;;;5063731;28;20037;-66
2023/01/03 03:13:17;;;;;;;39.28;19.05;;;2.60;99.90;;;;;;5058225;28;20061;-66
2023/01/03 03:15:49;;;;;;;72.43;22.52;;;2.60;99.90;;;;;;5081539;28;20148;-67
2023/01/03 03:18:23;;;;;;;65.05;22.13;;;2.60;99.90;;;;;;5062950;28;20131;-67
2023/01/03 03:26:29;;;;;;;59.63;24.08;;;2.50;99.90;;;;;;5083321;28;20507;-67
2023/01/03 03:28:58;;;;;;;;;;;2.60;99.90;;;;;;5066694;28;20044;-67
2023/01/03 03:31:31;;;;;;;57.08;23.08;;;2.60;99.90;;;;;;5079574;28;20391;-67
2023/01/03 03:33:56;;;;;;;49.72;22.65;;;2.60;99.90;;;;;;5085175;28;20608;-67
2023/01/03 03:36:47;;;;;;;52.72;23.52;;;2.60;99.90;;;;;;5082357;28;20123;-67
2023/01/03 03:45:33;;;;;;;50.97;22.17;;;2.70;99.90;;;;;;5081603;28;20059;-67
2023/01/03 03:48:19;;;;;;;68.85;23.67;;;2.60;99.90;;;;;;5078986;28;20048;-67
2023/01/03 03:50:50;;;;;;;53.92;23.90;;;2.60;99.90;;;;;;5079529;28;20041;-67
2023/01/03 03:53:19;;;;;;;52.70;23.25;;;2.60;99.90;;;;;;5062955;28;20405;-67
2023/01/03 03:55:55;;;;;;;53.67;22.02;;;2.70;99.90;;;;;;5050676;28;20094;-67
2023/01/03 03:58:27;;;;;;;61.30;25.80;;;2.70;99.90;;;;;;5088102;28;20097;-67
2023/01/03 04:00:54;;;;;;;72.50;24.50;;;2.60;99.90;;;;;;5087635;28;20035;-67
2023/01/03 04:03:21;;;;;;;73.15;24.70;;;2.60;99.90;;;;;;5081659;28;20332;-67
2023/01/03 04:06:04;;;;;;;62.08;23.27;;;2.60;99.90;;;;;;5087580;28;20071;-66
2023/01/03 04:08:31;;;;;;;53.97;23.02;;;2.50;99.90;;;;;;5081412;28;20039;-66
2023/01/03 04:11:04;;;;;;;70.50;24.15;;;2.50;99.90;;;;;;5079277;28;20043;-67
2023/01/03 04:13:35;;;;;;;60.30;23.20;;;2.50;99.90;;;;;;5082577;28;20043;-67
2023/01/03 04:16:01;;;;;;;65.70;23.92;;;2.30;99.90;;;;;;5084444;28;20036;-67
2023/01/03 04:18:27;;;;;;;50.40;21.85;;;2.30;99.90;;;;;;5077381;28;20040;-67
2023/01/03 04:20:53;;;;;;;54.03;22.40;;;2.30;99.90;;;;;;5082425;28;20046;-67
2023/01/03 04:23:19;;;;;;;60.58;24.10;;;2.20;99.90;;;;;;5083812;28;20044;-67
2023/01/03 04:25:44;;;;;;;49.00;21.33;;;2.20;99.90;;;;;;5085949;28;20028;-67
2023/01/03 04:28:10;;;;;;;60.60;22.42;;;2.20;99.90;;;;;;5082611;28;20037;-67
2023/01/03 04:30:36;;;;;;;58.85;23.02;;;2.20;99.90;;;;;;5064360;28;20123;-67
2023/01/03 04:33:05;;;;;;;63.97;24.58;;;2.20;99.90;;;;;;5084018;28;20120;-67
2023/01/03 04:35:34;;;;;;;68.47;25.48;;;2.20;99.90;;;;;;5067487;28;20035;-67
2023/01/03 04:38:00;;;;;;;67.55;24.52;;;2.20;99.90;;;;;;5082710;28;20108;-67
2023/01/03 04:40:26;;;;;;;48.47;24.13;;;2.30;99.90;;;;;;5086446;28;20120;-67
2023/01/03 04:45:37;;;;;;;65.70;25.45;;;2.40;99.90;;;;;;5079229;28;20063;-67
2023/01/03 04:48:03;;;;;;;68.50;26.30;;;2.40;99.90;;;;;;5083748;28;20462;-67
2023/01/03 04:50:29;;;;;;;53.33;24.27;;;2.50;99.90;;;;;;5060039;28;20123;-67
2023/01/03 04:52:55;;;;;;;55.22;25.75;;;2.50;99.90;;;;;;5064238;28;20039;-67
2023/01/03 04:55:21;;;;;;;72.60;26.73;;;2.50;99.90;;;;;;5079242;28;20041;-67
2023/01/03 04:57:47;;;;;;;66.38;25.08;;;2.50;99.90;;;;;;5060077;28;20054;-67
2023/01/03 05:00:13;;;;;;;72.82;25.90;;;2.50;99.90;;;;;;5076981;28;20047;-67
2023/01/03 05:02:39;;;;;;;72.28;25.05;;;2.60;99.90;;;;;;5084813;28;20090;-67
2023/01/03 05:05:05;;;;;;;65.20;25.77;;;2.60;99.90;;;;;;5079250;28;20492;-67
2023/01/03 05:07:31;;;;;;;63.15;27.00;;;2.60;99.90;;;;;;5064208;28;20545;-67
2023/01/03 05:09:57;;;;;;;64.85;27.98;;;2.60;99.90;;;;;;5082245;28;20118;-67
2023/01/03 05:12:23;;;;;;;58.70;26.83;;;2.60;99.90;;;;;;5082629;28;20090;-67
2023/01/03 05:14:49;;;;;;;72.07;26.40;;;2.50;99.90;;;;;;5078247;28;20119;-67
2023/01/03 05:17:16;;;;;;;74.30;27.42;;;2.50;99.90;;;;;;5079269;28;20047;-67
2023/01/03 05:27:56;;;;;;;65.60;26.38;;;2.40;99.90;;;;;;5061454;28;20305;-67
2023/01/03 05:30:26;;;;;;;67.82;27.60;;;2.30;99.90;;;;;;5082643;28;20040;-67
2023/01/03 05:32:59;;;;;;;58.30;27.40;;;2.30;99.90;;;;;;5080001;28;20071;-67
2023/01/03 05:35:28;;;;;;;55.00;26.80;;;2.30;99.90;;;;;;5059617;28;20376;-66
2023/01/03 05:37:54;;;;;;;67.53;26.80;;;2.30;99.90;;;;;;5081047;28;20035;-67
2023/01/03 05:40:19;;;;;;;62.47;28.75;;;2.30;99.90;;;;;;5080672;28;20033;-67
2023/01/03 05:42:45;;;;;;;68.03;28.65;;;2.20;99.90;;;;;;5083825;28;20032;-67
2023/01/03 05:45:11;;;;;;;71.97;29.27;;;2.20;99.90;;;;;;5083248;28;20028;-67
2023/01/03 05:47:36;;;;;;;50.90;26.05;;;2.20;99.90;;;;;;5067027;28;20163;-67
2023/01/03 05:50:02;;;;;;;52.75;26.75;;;2.10;99.90;;;;;;5082625;28;20380;-67
2023/01/03 05:52:28;;;;;;;55.45;27.17;;;2.10;99.90;;;;;;5082437;28;20083;-66
2023/01/03 05:54:54;;;;;;;51.63;27.02;;;2.00;99.90;;;;;;5083003;28;20047;-67
2023/01/03 05:57:19;;;;;;;58.35;28.95;;;2.00;99.90;;;;;;5084814;28;20047;-66
2023/01/03 05:59:45;;;;;;;52.72;25.65;;;2.00;99.90;;;;;;5083991;28;20055;-66
2023/01/03 06:02:11;;;;;;;63.53;28.65;;;2.00;99.90;;;;;;5064149;28;20806;-66
2023/01/03 06:04:36;;;;;;;61.90;26.60;;;2.00;99.90;;;;;;5067503;28;20086;-66
2023/01/03 06:07:02;;;;;;;72.72;29.00;;;1.90;99.90;;;;;;5082998;28;20395;-66
2023/01/03 06:09:28;;;;;;;67.90;28.05;;;1.90;99.90;;;;;;5082658;28;20028;-66
2023/01/03 06:11:53;;;;;;;66.50;27.92;;;1.90;99.90;;;;;;5083218;28;20039;-66
2023/01/03 06:14:19;;;;;;;51.78;27.02;;;1.90;99.90;;;;;;5079693;28;20460;-66
2023/01/03 06:19:29;;;;;;;81.07;28.70;;;1.80;99.90;;;;;;5080726;28;20460;-67
2023/01/03 06:21:55;;;;;;;52.53;25.77;;;1.80;99.90;;;;;;5083824;28;20039;-67
2023/01/03 06:24:21;;;;;;;45.28;25.00;;;1.80;99.90;;;;;;5064810;28;20036;-66
2023/01/03 06:26:46;;;;;;;58.70;26.67;;;1.70;99.90;;;;;;5084813;28;20120;-66
2023/01/03 06:29:12;;;;;;;48.90;25.63;;;1.70;99.90;;;;;;5083390;28;20402;-66
2023/01/03 06:31:39;;;;;;;53.45;26.00;;;1.70;99.90;;;;;;5084855;28;20032;-66
2023/01/03 06:34:04;;;;;;;52.60;25.17;;;1.70;99.90;;;;;;5084124;28;20037;-66
2023/01/03 06:36:33;;;;;;;59.17;26.48;;;1.60;99.90;;;;;;5081729;28;20426;-65
2023/01/03 06:38:59;;;;;;;49.53;26.80;;;1.60;99.90;;;;;;5081682;28;20042;-65
2023/01/03 06:41:25;;;;;;;55.80;27.33;;;1.60;99.90;;;;;;5084258;28;20032;-66
2023/01/03 06:43:53;;;;;;;42.60;26.23;;;1.60;99.90;;;;;;5083807;28;20050;-66
2023/01/03 06:54:35;;;;;;;66.30;28.83;;;1.60;99.90;;;;;;5083631;28;20131;-66
2023/01/03 06:57:01;;;;;;;74.00;30.38;;;1.60;99.90;;;;;;5067017;28;20049;-66
2023/01/03 06:59:27;;;;;;;72.70;30.92;;;1.60;99.90;;;;;;5081565;28;20193;-65
2023/01/03 07:01:54;;;;;;;82.97;32.83;;;1.60;99.90;;;;;;5065206;28;20491;-66
2023/01/03 07:04:23;;;;;;;58.20;31.10;;;1.50;99.90;;;;;;5083461;28;20044;-65
2023/01/03 07:06:49;;;;;;;63.45;31.95;;;1.60;99.90;;;;;;5085829;28;20040;-66
2023/01/03 07:09:15;;;;;;;63.08;32.38;;;1.60;99.90;;;;;;5081333;28;20036;-65
2023/01/03 07:11:41;;;;;;;70.78;32.30;;;1.60;99.90;;;;;;5066196;28;20032;-65
2023/01/03 07:14:09;;;;;;;95.15;35.55;;;1.70;99.90;;;;;;5080756;28;20052;-66
2023/01/03 07:16:46;;;;;;;90.68;36.00;;;1.60;99.90;;;;;;5080462;28;20067;-65
2023/01/03 07:19:15;;;;;;;70.60;32.75;;;1.60;99.90;;;;;;5082869;28;20036;-66
2023/01/03 07:21:41;;;;;;;93.13;33.75;;;1.60;99.90;;;;;;5066091;28;20032;-66
2023/01/03 07:24:09;;;;;;;98.53;32.70;;;1.60;99.90;;;;;;5063055;28;20766;-65
2023/01/03 07:26:35;;;;;;;110.05;33.08;;;1.60;99.90;;;;;;5082580;28;20420;-65
2023/01/03 07:29:04;;;;;;;107.18;30.50;;;1.60;99.90;;;;;;5078058;28;20082;-66
2023/01/03 07:31:31;;;;;;;128.52;31.38;;;1.50;99.90;;;;;;5065597;28;20089;-66
2023/01/03 07:33:58;;;;;;;118.53;29.20;;;1.50;99.90;;;;;;5083166;28;20098;-66
2023/01/03 07:36:24;;;;;;;136.90;29.58;;;1.50;99.90;;;;;;5082481;28;20127;-66
2023/01/03 07:38:50;;;;;;;123.90;28.70;;;1.50;99.90;;;;;;5083652;28;20122;-66
2023/01/03 07:41:16;;;;;;;139.05;29.92;;;1.40;99.90;;;;;;5082473;28;20468;-66
2023/01/03 07:43:47;;;;;;;163.45;31.88;;;1.40;99.90;;;;;;5082573;28;20056;-66
2023/01/03 07:46:19;;;;;;;155.15;30.60;;;1.40;99.90;;;;;;5082144;28;20534;-66
2023/01/03 07:48:48;;;;;;;148.63;31.92;;;1.30;99.90;;;;;;5079822;28;20047;-66
2023/01/03 07:51:15;;;;;;;206.30;36.78;;;1.40;99.90;;;;;;5079387;28;20430;-66
2023/01/03 07:53:42;;;;;;;161.02;32.22;;;1.30;99.90;;;;;;5082635;28;20346;-66
2023/01/03 07:56:13;;;;;;;182.93;31.90;;;1.40;99.90;;;;;;5083200;28;20549;-66
2023/01/03 07:58:40;;;;;;;241.48;35.90;;;1.40;99.90;;;;;;5082941;28;20126;-66
2023/01/03 08:01:12;;;;;;;251.45;39.10;;;1.40;99.90;;;;;;5083829;28;20989;-67
2023/01/03 08:03:39;;;;;;;369.98;44.58;;;1.50;99.90;;;;;;5082132;28;20572;-66
2023/01/03 08:06:14;;;;;;;391.83;44.63;;;1.50;99.90;;;;;;5062985;28;20043;-66
2023/01/03 08:08:40;;;;;;;339.88;39.95;;;1.60;99.90;;;;;;5082077;28;20115;-66
2023/01/03 08:13:53;;;;;;;338.15;38.97;;;1.70;99.90;;;;;;5061953;28;20063;-64
2023/01/03 08:16:19;;;;;;;433.02;45.45;;;1.80;99.90;;;;;;5080790;28;20037;-65
2023/01/03 08:18:45;;;;;;;396.55;45.65;;;1.80;99.90;;;;;;5080544;28;20542;-65
2023/01/03 08:21:13;;;;;;;370.05;43.58;;;1.90;99.90;;;;;;5081786;28;20032;-65
2023/01/03 08:23:40;;;;;;;426.60;47.28;;;2.00;99.90;;;;;;5067183;28;20048;-65
2023/01/03 08:26:09;;;;;;;371.88;45.97;;;2.10;99.90;;;;;;5081067;28;20036;-65
2023/01/03 08:28:36;;;;;;;567.53;58.22;;;2.10;99.90;;;;;;5064376;28;20491;-66
2023/01/03 08:31:08;;;;;;;509.13;53.95;;;2.20;99.90;;;;;;5081054;28;20471;-63
2023/01/03 08:33:40;;;;;;;511.13;54.50;;;2.30;99.90;;;;;;5077221;28;20040;-65
2023/01/03 08:36:08;;;;;;;562.15;58.08;;;2.40;99.90;;;;;;5078681;28;20047;-65
2023/01/03 08:39:05;;;;;;;542.70;57.22;;;2.40;99.90;;;;;;5068560;28;20081;-65
2023/01/03 08:41:35;;;;;;;495.20;53.78;;;2.60;99.90;;;;;;5037583;28;20101;-65
2023/01/03 08:44:02;;;;;;;567.05;58.38;;;2.60;99.90;;;;;;5065954;28;20051;-65
2023/01/03 08:46:31;;;;;;;496.92;57.60;;;2.70;99.90;;;;;;5082787;28;20087;-66
2023/01/03 08:48:58;;;;;;;551.58;56.20;;;2.80;99.90;;;;;;5084427;28;20488;-65
2023/01/03 08:51:25;;;;;;;574.33;60.08;;;2.80;99.90;;;;;;5081223;28;20454;-65
2023/01/03 08:53:52;;;;;;;582.78;60.50;;;2.90;99.90;;;;;;5083275;28;20051;-65
2023/01/03 08:56:18;;;;;;;611.05;64.22;;;3.00;99.90;;;;;;5081893;28;20044;-66
2023/01/03 08:58:44;;;;;;;514.03;60.38;;;3.00;99.90;;;;;;5082899;28;20050;-66
2023/01/03 09:01:10;;;;;;;497.33;60.30;;;3.10;99.90;;;;;;5086431;28;20039;-64
2023/01/03 09:03:37;;;;;;;614.97;65.68;;;3.10;99.90;;;;;;5083415;28;20040;-66
2023/01/03 09:06:03;;;;;;;466.05;60.03;;;3.20;99.90;;;;;;5060691;28;20051;-66
2023/01/03 09:08:33;;;;;;;549.88;63.42;;;3.30;99.90;;;;;;5079352;28;20487;-67
2023/01/03 09:11:04;;;;;;;496.55;66.47;;;3.30;99.90;;;;;;5067717;28;20538;-66
2023/01/03 09:13:30;;;;;;;396.15;62.88;;;3.40;99.90;;;;;;5059751;28;20048;-66
2023/01/03 09:16:15;;;;;;;397.52;59.55;;;3.50;99.90;;;;;;5065090;28;20047;-66
2023/01/03 09:18:41;;;;;;;348.55;59.05;;;3.70;99.90;;;;;;5068438;28;20468;-65
2023/01/03 09:21:07;;;;;;;436.95;64.53;;;3.70;99.90;;;;;;5068308;28;20052;-66
2023/01/03 09:23:34;;;;;;;264.75;54.85;;;3.90;99.90;;;;;;5083796;28;20040;-65
2023/01/03 09:26:00;;;;;;;491.40;68.57;;;3.90;99.90;;;;;;5080415;28;20043;-65
2023/01/03 09:28:26;;;;;;;443.67;66.53;;;4.00;99.90;;;;;;5085291;28;20032;-65
2023/01/03 09:30:52;;;;;;;360.88;59.95;;;4.10;99.90;;;;;;5087133;28;20460;-65
2023/01/03 09:33:18;;;;;;;253.73;55.55;;;4.10;99.90;;;;;;5084085;28;20392;-65
2023/01/03 09:35:44;;;;;;;221.18;52.30;;;4.20;99.90;;;;;;5065610;28;20042;-65
2023/01/03 09:38:09;;;;;;;355.90;62.42;;;4.30;99.90;;;;;;5084395;28;20068;-65
2023/01/03 09:40:41;;;;;;;336.67;60.83;;;4.30;99.90;;;;;;5083296;28;20083;-66
2023/01/03 09:43:18;;;;;;;237.45;55.20;;;4.30;99.90;;;;;;5081116;28;20513;-65
2023/01/03 09:45:50;;;;;;;236.82;54.45;;;4.40;99.90;;;;;;5079500;28;20067;-65
2023/01/03 09:48:18;;;;;;;176.57;49.85;;;4.40;99.90;;;;;;5064990;28;20071;-66
2023/01/03 09:50:45;;;;;;;337.63;60.15;;;4.40;99.90;;;;;;5081635;28;20174;-65
2023/01/03 10:05:31;;;;;;;247.00;54.47;;;4.60;99.90;;;;;;5059274;28;20074;-66
2023/01/03 10:08:15;;;;;;;120.38;45.47;;;4.60;99.90;;;;;;5080722;28;20122;-66
2023/01/03 10:11:02;;;;;;;230.15;53.83;;;4.60;99.90;;;;;;5057099;28;20496;-65
2023/01/03 10:13:55;;;;;;;145.55;49.03;;;4.70;99.90;;;;;;5080498;28;20467;-65
2023/01/03 10:16:50;;;;;;;297.45;58.83;;;4.70;99.90;;;;;;5066744;28;20040;-66
2023/01/03 10:19:28;;;;;;;152.48;51.17;;;4.80;99.90;;;;;;5059017;28;20052;-66
2023/01/03 10:22:09;;;;;;;150.35;51.60;;;4.90;99.90;;;;;;5062224;28;20167;-66
2023/01/03 10:25:03;;;;;;;123.05;46.97;;;4.90;99.90;;;;;;5080736;28;20040;-67
2023/01/03 10:27:42;;;;;;;122.70;47.35;;;5.10;99.90;;;;;;5062406;28;20037;-67
2023/01/03 10:30:16;;;;;;;103.43;45.22;;;5.20;99.90;;;;;;5045304;28;20499;-66
2023/01/03 10:33:06;;;;;;;171.02;49.83;;;5.20;99.90;;;;;;5082978;28;20119;-67
2023/01/03 10:35:34;;;;;;;177.93;51.03;;;5.30;99.90;;;;;;5062546;28;20049;-67
2023/01/03 10:38:00;;;;;;;142.88;50.65;;;5.20;99.90;;;;;;5077675;28;20040;-66
2023/01/03 10:40:34;;;;;;;113.03;45.95;;;5.30;99.90;;;;;;5055676;28;20712;-66
2023/01/03 10:43:25;;;;;;;233.55;58.10;;;5.30;99.90;;;;;;5060801;28;20407;-67
2023/01/03 10:46:02;;;;;;;185.20;53.70;;;5.40;99.90;;;;;;5083576;28;20044;-66
2023/01/03 10:48:38;;;;;;;104.50;45.45;;;5.40;99.90;;;;;;5083772;28;20059;-68
2023/01/03 10:51:19;;;;;;;112.68;45.70;;;5.60;99.90;;;;;;5064776;28;20044;-66
2023/01/03 10:53:45;;;;;;;111.47;45.55;;;5.50;99.90;;;;;;5065154;28;20055;-66
2023/01/03 10:56:14;;;;;;;120.93;46.05;;;5.60;99.90;;;;;;5060433;28;20484;-66
2023/01/03 10:58:40;;;;;;;97.22;42.05;;;5.60;99.90;;;;;;5081307;28;20048;-66
2023/01/03 11:01:24;;;;;;;139.35;49.53;;;5.60;99.90;;;;;;5083823;28;20039;-66
2023/01/03 11:04:18;;;;;;;104.22;42.55;;;5.60;99.90;;;;;;5063479;28;20046;-66
2023/01/03 11:07:07;;;;;;;93.88;40.40;;;5.70;99.90;;;;;;5066646;28;20040;-66
2023/01/03 11:09:56;;;;;;;94.32;38.25;;;5.80;99.90;;;;;;5064265;28;20392;-66
2023/01/03 11:12:42;;;;;;;109.35;40.88;;;5.80;99.90;;;;;;5064279;28;20036;-66
2023/01/03 11:15:31;;;;;;;88.55;37.47;;;5.90;99.90;;;;;;5079100;28;20040;-66
2023/01/03 11:18:03;;;;;;;92.45;38.05;;;5.90;99.90;;;;;;5050025;28;20131;-66
2023/01/03 11:20:38;;;;;;;76.72;34.20;;;5.90;99.90;;;;;;5075215;28;20036;-66
2023/01/03 11:23:34;;;;;;;80.43;37.08;;;6.00;99.90;;;;;;5079253;28;20044;-66
2023/01/03 11:25:59;;;;;;;;;;;6.00;99.90;;;;;;5059700;28;20473;-67
2023/01/03 11:28:47;;;;;;;67.40;32.83;;;5.90;99.90;;;;;;5079585;28;19927;-66
2023/01/03 11:31:40;;;;;;;64.47;32.03;;;6.00;99.90;;;;;;5061038;28;20036;-66
2023/01/03 11:34:27;;;;;;;61.53;31.25;;;6.00;99.90;;;;;;5078171;28;20044;-66
2023/01/03 11:37:05;;;;;;;61.95;31.63;;;6.00;99.90;;;;;;5072269;28;20387;-66
2023/01/03 11:39:59;;;;;;;64.90;30.60;;;6.00;99.90;;;;;;5079725;28;20090;-66
2023/01/03 11:42:57;;;;;;;56.78;28.08;;;6.00;99.90;;;;;;5042236;28;20047;-67
2023/01/03 11:45:53;;;;;;;55.92;28.88;;;6.00;99.90;;;;;;5037985;28;20040;-66
2023/01/03 11:48:39;;;;;;;49.60;25.23;;;6.10;99.90;;;;;;5043671;28;20044;-66
2023/01/03 11:51:25;;;;;;;51.63;28.02;;;6.10;99.90;;;;;;5077891;28;20083;-66
2023/01/03 11:54:07;;;;;;;51.30;27.67;;;6.10;99.90;;;;;;5074489;28;20059;-67
2023/01/03 11:56:37;;;;;;;54.25;26.63;;;6.10;99.90;;;;;;5059198;28;20044;-66
2023/01/03 11:59:02;;;;;;;57.30;29.17;;;6.10;99.90;;;;;;5063703;28;20043;-66
2023/01/03 12:02:01;;;;;;;46.90;25.90;;;6.10;99.90;;;;;;5081503;28;20387;-67
2023/01/03 12:04:39;;;;;;;63.03;28.20;;;6.20;99.90;;;;;;5079418;28;20051;-67
2023/01/03 12:07:19;;;;;;;60.90;26.90;;;6.20;99.90;;;;;;5062516;28;20044;-66
2023/01/03 12:09:49;;;;;;;58.33;27.95;;;6.20;99.90;;;;;;5060681;28;20063;-66
2023/01/03 12:12:24;;;;;;;50.15;25.50;;;6.20;99.90;;;;;;5068848;28;20031;-67
2023/01/03 12:15:18;;;;;;;46.78;26.38;;;6.30;99.90;;;;;;5078812;28;20044;-66
2023/01/03 12:18:02;;;;;;;47.85;25.92;;;6.30;99.90;;;;;;5072538;28;20056;-66
2023/01/03 12:20:43;;;;;;;54.85;26.60;;;6.40;99.90;;;;;;5082683;28;20458;-66
2023/01/03 12:23:30;;;;;;;50.30;24.70;;;6.40;99.90;;;;;;5083650;28;20037;-67
2023/01/03 12:26:03;;;;;;;57.75;25.42;;;6.30;99.90;;;;;;5069054;28;20063;-66
2023/01/03 12:28:45;;;;;;;46.45;24.33;;;6.40;99.90;;;;;;5083100;28;20024;-66
2023/01/03 12:31:23;;;;;;;54.80;25.67;;;6.40;99.90;;;;;;5068010;28;20075;-66
2023/01/03 12:34:15;;;;;;;55.55;24.15;;;6.40;99.90;;;;;;5067972;28;20040;-66
2023/01/03 12:37:04;;;;;;;49.63;23.85;;;6.40;99.90;;;;;;5049148;28;20053;-66
2023/01/03 12:39:55;;;;;;;48.30;23.38;;;6.40;99.90;;;;;;5085079;28;20051;-66
2023/01/03 12:42:39;;;;;;;53.13;22.75;;;6.50;99.90;;;;;;5068096;28;20044;-66
2023/01/03 12:45:10;;;;;;;50.65;23.10;;;6.50;99.90;;;;;;5079917;28;20106;-66
2023/01/03 12:48:05;;;;;;;48.17;22.23;;;6.50;99.90;;;;;;5067071;28;20063;-66
2023/01/03 12:50:51;;;;;;;51.63;23.45;;;6.50;99.90;;;;;;5045896;28;20072;-66
2023/01/03 12:53:33;;;;;;;50.85;23.30;;;6.50;99.90;;;;;;5061702;28;20484;-67
2023/01/03 12:56:24;;;;;;;37.33;20.50;;;6.60;99.90;;;;;;5082076;28;20384;-67
2023/01/03 12:59:20;;;;;;;40.35;20.90;;;6.60;99.90;;;;;;5068858;28;20060;-68
2023/01/03 13:01:52;;;;;;;51.30;23.80;;;6.60;99.90;;;;;;5076972;28;20036;-67
2023/01/03 13:04:24;;;;;;;50.60;22.80;;;6.60;99.90;;;;;;5075794;28;20055;-64
2023/01/03 13:07:01;;;;;;;57.45;24.02;;;6.60;99.90;;;;;;5083760;28;20032;-67
2023/01/03 13:09:32;;;;;;;45.88;22.42;;;6.60;99.90;;;;;;5078464;28;20036;-68
2023/01/03 13:12:15;;;;;;;41.40;22.58;;;6.60;99.90;;;;;;5077527;28;20094;-68
2023/01/03 13:14:55;;;;;;;48.78;22.77;;;6.70;99.90;;;;;;5081578;28;20040;-67
2023/01/03 13:17:26;;;;;;;44.85;22.58;;;6.60;99.90;;;;;;5082998;28;20036;-65
2023/01/03 13:19:55;;;;;;;41.67;22.17;;;6.70;99.90;;;;;;5076925;28;20054;-66
2023/01/03 13:22:46;;;;;;;43.70;22.60;;;6.70;99.90;;;;;;5081939;28;20480;-66
2023/01/03 13:25:41;;;;;;;43.88;21.85;;;6.70;99.90;;;;;;5072309;28;20053;-66
2023/01/03 13:28:28;;;;;;;39.78;21.40;;;6.70;99.90;;;;;;5058963;28;20033;-67
2023/01/03 13:31:17;;;;;;;52.92;24.92;;;6.80;99.90;;;;;;5080684;28;20068;-66
2023/01/03 13:34:08;;;;;;;50.88;24.75;;;6.90;99.90;;;;;;5057267;28;20063;-66
2023/01/03 13:37:19;;;;;;;44.67;22.95;;;6.90;99.90;;;;;;5084424;28;20111;-67
2023/01/03 13:39:50;;;;;;;42.35;23.05;;;6.90;99.90;;;;;;5059952;28;20071;-67
2023/01/03 13:42:33;;;;;;;49.70;23.27;;;6.90;99.90;;;;;;5080732;28;20043;-67
2023/01/03 13:45:14;;;;;;;38.22;21.42;;;7.00;99.90;;;;;;5083171;28;20028;-67
2023/01/03 13:47:39;;;;;;;41.00;21.60;;;7.00;99.90;;;;;;5059504;28;20501;-67
2023/01/03 13:50:46;;;;;;;38.20;20.25;;;7.00;99.90;;;;;;5058800;28;20041;-67
2023/01/03 13:53:12;;;;;;;33.35;19.95;;;7.00;99.90;;;;;;5027466;28;20044;-67
2023/01/03 13:55:55;;;;;;;39.85;18.25;;;6.90;99.90;;;;;;5060775;28;20509;-67
2023/01/03 13:58:36;;;;;;;35.40;19.42;;;7.00;99.90;;;;;;5059038;28;20147;-67
2023/01/03 14:01:04;;;;;;;28.58;17.00;;;6.90;99.90;;;;;;5060766;28;20045;-67